Terminal Aerodrome Forecast
Issued by NWS Louisville, KY

Home | Current Version | Previous Version | Text Only | Print | Product List | Glossary On
Versions: 1 2 3 4 5 6 7 8 9 10 11 12 13 14 15 16
000
FTUS43 KLMK 250437 AAB
TAFSDF
TAF AMD
KSDF 250437Z 2505/2606 26008KT P6SM VCSH SCT008 OVC013
      TEMPO 2505/2509 5SM -SHRA BKN008
     FM250900 28015KT P6SM -SHRA OVC007
     FM251600 30015G21KT P6SM VCSH BKN015
     FM252100 30015G25KT P6SM BKN025=

USA.gov is the U.S. government's official web portal to all federal, state and local government web resources and services.